Have a Safe July 4th! 

Flight Track Log - Related Links

Times and Time Zones

All times are in EDT time to prevent confusion due to time zone crossing. See the UAL335 flight status page for this flight to view local times or setup timezone preferences in your user account.

Time Position Orientation Groundspeed Altitude Reporting Facility
EDT Latitude Longitude Course Direction KTS MPH feet Rate Location/Type
Mon 08:41:09 AM 38.7333 -121.5833 78° East 152 175 1,500  Level Northern Cal TRACON
Mon 08:42:03 AM 38.7500 -121.5333 67° East 218 251 3,200 2,428 Climbing Northern Cal TRACON
Mon 08:43:00 AM 38.4915 -121.2932 80° East  Level FlightAware Approximate
Mon 08:44:00 AM 38.5236 -121.1488 76° East  Level FlightAware Approximate
Mon 08:44:02 AM 38.7436 -121.3600 93° East 289 333 8,500  Level Oakland Center
Mon 08:45:00 AM 38.5524 -121.0025 78° East  Level FlightAware Approximate
Mon 08:45:02 AM 38.7408 -121.2478 92° East 314 361 10,800  Level Oakland Center
Mon 08:46:00 AM 38.5771 -120.8549 78° East  Level FlightAware Approximate
Mon 08:46:02 AM 38.7350 -121.1186 93° East 354 407 13,400  Level Oakland Center
Mon 08:47:03 AM 38.7303 -120.9847 93° East 369 425 15,900 2,529 Climbing Oakland Center
Mon 08:48:03 AM 38.7228 -120.8464 94° East 385 443 18,500 2,400 Climbing Oakland Center
Mon 08:49:03 AM 38.7161 -120.7033 93° East 399 459 20,700 2,100 Climbing Oakland Center
Mon 08:50:03 AM 38.7086 -120.5569 94° East 412 474 22,700 1,900 Climbing Oakland Center
Mon 08:51:03 AM 38.7017 -120.4078 93° East 418 481 24,500 1,700 Climbing Oakland Center
Mon 08:52:03 AM 38.6936 -120.2536 94° East 434 499 26,100 1,537 Climbing Oakland Center
Mon 08:53:04 AM 38.6883 -120.0978 92° East 438 504 27,600 1,537 Climbing Oakland Center
Mon 08:54:04 AM 38.6800 -119.9386 94° East 445 512 29,200 1,400 Climbing Oakland Center
Mon 08:55:04 AM 38.6719 -119.7747 94° East 456 525 30,400 1,250 Climbing Oakland Center
Mon 08:56:04 AM 38.6617 -119.6089 94° East 466 536 31,700 1,350 Climbing Oakland Center
Mon 08:57:04 AM 38.6525 -119.4433 94° East 468 539 33,100 1,339 Climbing Oakland Center
Mon 08:58:05 AM 38.6439 -119.2797 94° East 466 536 34,400 1,240 Climbing Oakland Center
Mon 08:59:05 AM 38.6344 -119.1172 94° East 462 532 35,600 1,150 Climbing Oakland Center
Mon 09:00:05 AM 38.6239 -118.9536 95° East 464 534 36,700 700 Climbing Oakland Center
Mon 09:01:05 AM 38.6153 -118.7928 94° East 459 528 37,000 150 Climbing Oakland Center
Mon 09:02:05 AM 38.6044 -118.6319 95° East 456 525 37,000  Level Oakland Center
Mon 09:03:06 AM 38.5953 -118.4722 94° East 454 522 37,000  Level Oakland Center
Mon 09:04:06 AM 38.5839 -118.3106 95° East 457 526 37,000  Level Oakland Center
Mon 09:05:06 AM 38.5739 -118.1489 94° East 459 528 37,000  Level Oakland Center
Mon 09:06:06 AM 38.5764 -117.9742 89° East 455 524 37,000  Level Oakland Center
Mon 09:07:06 AM 38.6006 -117.8175 79° East 450 518 37,000  Level Oakland Center
Mon 09:08:07 AM 38.6239 -117.6603 79° East 449 517 37,000  Level Oakland Center
Mon 09:09:07 AM 38.6481 -117.5014 79° East 451 519 37,000  Level Oakland Center
Mon 09:10:07 AM 38.6728 -117.3428 79° East 451 519 37,000  Level Oakland Center
Mon 09:10:22 AM 38.6764 -117.3103 82° East 452 520 37,000  Level Salt Lake Center
Mon 09:11:23 AM 38.7006 -117.1503 79° East 454 522 37,000  Level Salt Lake Center
Mon 09:12:08 AM 38.7211 -117.0242 78° East 453 521 37,000  Level Oakland Center
Mon 09:13:08 AM 38.7442 -116.8650 79° East 453 521 37,000  Level Oakland Center
Mon 09:13:25 AM 38.7478 -116.8325 82° East 452 520 37,000  Level Salt Lake Center
Mon 09:14:26 AM 38.7711 -116.6731 79° East 453 521 37,000  Level Salt Lake Center
Mon 09:15:09 AM 38.7908 -116.5456 79° East 455 524 37,000  Level Oakland Center
Mon 09:16:10 AM 38.8128 -116.3872 80° East 451 519 37,000  Level Oakland Center
Mon 09:16:28 AM 38.8172 -116.3547 80° East 452 520 37,000  Level Salt Lake Center
Mon 09:17:28 AM 38.8406 -116.1947 79° East 456 525 37,000  Level Salt Lake Center
Mon 09:18:29 AM 38.8669 -116.0025 80° East 454 522 37,000  Level Salt Lake Center
Mon 09:19:30 AM 38.8892 -115.8417 80° East 457 526 37,000  Level Salt Lake Center
Mon 09:20:31 AM 38.9117 -115.6811 80° East 457 526 37,000  Level Salt Lake Center
Mon 09:21:32 AM 38.9342 -115.5203 80° East 458 527 37,000  Level Salt Lake Center
Mon 09:22:33 AM 38.9556 -115.3592 80° East 457 526 37,000  Level Salt Lake Center
Mon 09:23:34 AM 38.9783 -115.1967 80° East 462 532 37,000  Level Salt Lake Center
Mon 09:24:35 AM 38.9992 -115.0358 80° East 458 527 37,000  Level Salt Lake Center
Mon 09:25:36 AM 39.0203 -114.8744 80° East 458 527 37,000  Level Salt Lake Center
Mon 09:26:37 AM 39.0411 -114.7128 81° East 460 529 37,000  Level Salt Lake Center
Mon 09:27:37 AM 39.0622 -114.5489 81° East 462 532 37,000  Level Salt Lake Center
Mon 09:28:38 AM 39.0828 -114.3875 81° East 459 528 37,000  Level Salt Lake Center
Mon 09:29:39 AM 39.1033 -114.2250 81° East 461 531 37,000  Level Salt Lake Center
Mon 09:30:40 AM 39.1236 -114.0631 81° East 458 527 37,000  Level Salt Lake Center
Mon 09:31:41 AM 39.1425 -113.8997 81° East 460 529 37,000  Level Salt Lake Center
Mon 09:32:42 AM 39.1633 -113.7364 81° East 461 531 37,000  Level Salt Lake Center
Mon 09:33:43 AM 39.1853 -113.5436 82° East 454 522 37,000  Level Salt Lake Center
Mon 09:34:44 AM 39.2053 -113.3814 81° East 457 526 37,000  Level Salt Lake Center
Mon 09:35:45 AM 39.2236 -113.2200 82° East 456 525 37,000  Level Salt Lake Center
Mon 09:36:46 AM 39.2406 -113.0586 82° East 455 524 37,000  Level Salt Lake Center
Mon 09:37:48 AM 39.2594 -112.8969 81° East 455 524 37,000  Level Salt Lake Center
Mon 09:38:49 AM 39.2769 -112.7361 82° East 453 521 37,000  Level Salt Lake Center
Mon 09:39:50 AM 39.2958 -112.5764 81° East 452 520 37,000  Level Salt Lake Center
Mon 09:40:51 AM 39.3197 -112.4186 79° East 451 519 37,000  Level Salt Lake Center
Mon 09:41:52 AM 39.3492 -112.2622 76° East 452 520 37,000  Level Salt Lake Center
Mon 09:42:53 AM 39.3789 -112.1069 76° East 449 517 37,000  Level Salt Lake Center
Mon 09:43:54 AM 39.4075 -111.9497 77° East 452 520 37,000  Level Salt Lake Center
Mon 09:44:55 AM 39.4353 -111.7919 77° East 452 520 37,000  Level Salt Lake Center
Mon 09:45:56 AM 39.4703 -111.6033 76° East 452 520 37,000  Level Salt Lake Center
Mon 09:46:57 AM 39.4975 -111.4469 77° East 449 517 37,000  Level Salt Lake Center
Mon 09:47:58 AM 39.5258 -111.2903 77° East 448 516 37,000  Level Salt Lake Center
Mon 09:48:59 AM 39.5531 -111.1358 77° East 448 516 37,000  Level Salt Lake Center
Mon 09:50:00 AM 39.5800 -110.9836 77° East 453 521 37,000  Level Salt Lake Center
Mon 09:51:01 AM 39.6100 -110.8044 78° East 455 524 37,000  Level Salt Lake Center
Mon 09:52:03 AM 39.6375 -110.6531 77° East 452 520 37,000  Level Salt Lake Center
Mon 09:53:04 AM 39.6661 -110.4744 78° East 452 520 37,000  Level Salt Lake Center
Mon 09:54:05 AM 39.6925 -110.3219 77° East 454 522 37,000  Level Salt Lake Center
Mon 09:55:06 AM 39.7183 -110.1681 78° East 456 525 37,000  Level Salt Lake Center
Mon 09:56:07 AM 39.7489 -109.9856 78° East 461 531 37,000  Level Salt Lake Center
Mon 09:57:08 AM 39.7736 -109.8306 78° East 460 529 37,000  Level Salt Lake Center
Mon 09:58:10 AM 39.7992 -109.6736 78° East 461 531 37,000  Level Salt Lake Center
Mon 09:58:31 AM 39.8114 -109.5956 78° East 458 527 37,000  Level Denver Center
Mon 09:59:32 AM 39.8358 -109.4406 78° East 456 525 37,000  Level Denver Center
Mon 10:00:12 AM 39.8528 -109.3394 78° East 454 522 37,000  Level Salt Lake Center
Mon 10:01:13 AM 39.8806 -109.1600 79° East 452 520 37,000  Level Salt Lake Center
Mon 10:02:15 AM 39.9056 -109.0053 78° East 454 522 37,000  Level Salt Lake Center
Mon 10:03:16 AM 39.9294 -108.8489 79° East 455 524 37,000  Level Salt Lake Center
Mon 10:03:37 AM 39.9375 -108.7956 79° East 456 525 37,000  Level Denver Center
Mon 10:04:39 AM 39.9658 -108.6125 79° East 457 526 37,000  Level Denver Center
Mon 10:05:40 AM 39.9883 -108.4569 79° East 454 522 37,000  Level Denver Center
Mon 10:06:42 AM 40.0125 -108.3000 79° East 457 526 37,000  Level Denver Center
Mon 10:07:43 AM 40.0394 -108.1181 79° East 455 524 37,000  Level Denver Center
Mon 10:08:45 AM 40.0658 -107.9631 77° East 457 526 37,000  Level Denver Center
Mon 10:09:46 AM 40.1486 -107.8214 53° Northeast 442 509 37,000  Level Denver Center
Mon 10:10:48 AM 40.2233 -107.7042 50° Northeast 438 504 37,000  Level Denver Center
Mon 10:11:49 AM 40.2972 -107.5881 50° Northeast 435 501 37,000  Level Denver Center
Mon 10:12:51 AM 40.3847 -107.4519 50° Northeast 436 502 37,000  Level Denver Center
Mon 10:13:52 AM 40.4594 -107.3342 50° Northeast 437 503 37,000  Level Denver Center
Mon 10:14:54 AM 40.4883 -107.1700 77° East 471 542 37,000  Level Denver Center
Mon 10:15:56 AM 40.4783 -106.9906 94° East 470 541 37,000  Level Denver Center
Mon 10:16:57 AM 40.4644 -106.8278 96° East 467 537 37,000  Level Denver Center
Mon 10:17:59 AM 40.4528 -106.6586 95° East 465 535 37,000 -1,742 Level Denver Center
Mon 10:19:01 AM 40.4411 -106.4842 95° East 455 524 33,400 -4,355 Descending Denver Center
Mon 10:20:03 AM 40.4236 -106.2806 96° East 503 579 28,000 -4,000 Descending Denver Center
Mon 10:21:04 AM 40.4108 -106.0983 95° East 497 572 25,200 -2,829 Descending Denver Center
Mon 10:22:06 AM 40.3983 -105.9219 95° East 482 555 22,200 -2,758 Descending Denver Center
Mon 10:23:08 AM 40.3825 -105.7531 97° East 468 539 19,500 -2,129 Descending Denver Center
Mon 10:24:10 AM 40.3692 -105.5869 96° East 454 522 17,800 -1,220 Descending Denver Center
Mon 10:25:11 AM 40.3569 -105.4406 96° East 383 441 17,000 -878 Descending Denver Center
Mon 10:26:13 AM 40.3394 -105.3103 100° East 340 391 16,000 -726 Descending Denver Center
Mon 10:27:15 AM 40.3236 -105.1978 100° East 316 364 15,500 -532 Descending Denver Center
Mon 10:28:17 AM 40.3083 -105.0911 101° East 299 344 14,900 -871 Descending Denver Center
Mon 10:29:19 AM 40.2889 -104.9739 102° East 305 351 13,700 -1,113 Descending Denver Center
Mon 10:30:21 AM 40.2492 -104.8769 118° Southeast 301 346 12,600 -1,161 Descending Denver Center
Mon 10:31:23 AM 40.2008 -104.8033 131° Southeast 275 316 11,300 -971 Descending Denver Center
Mon 10:32:37 AM 40.1336 -104.7511 149° Southeast 259 298 10,400 -1,191 Descending Denver Center
Mon 10:33:39 AM 40.0731 -104.7072 151° Southeast 198 228 8,600 -1,742 Descending Denver Center

Login

Don't have an account? Register now (free) for customized features, flight alerts, and more!